createdAt,value
2023-04-30T00:01:07.811Z,23.90
2023-04-30T00:03:36.194Z,21.90
2023-04-30T00:06:04.734Z,26.90
2023-04-30T00:08:33.172Z,25.00
2023-04-30T00:11:01.425Z,25.10
2023-04-30T00:13:29.658Z,24.70
2023-04-30T00:15:58.031Z,23.70
2023-04-30T00:18:26.290Z,24.20
2023-04-30T00:20:54.760Z,25.50
2023-04-30T00:23:23.173Z,25.30
2023-04-30T00:25:51.503Z,28.40
2023-04-30T00:28:19.759Z,32.30
2023-04-30T00:30:48.294Z,30.00
2023-04-30T00:33:16.534Z,27.60
2023-04-30T00:35:44.939Z,30.10
2023-04-30T00:38:13.328Z,32.20
2023-04-30T00:40:44.595Z,29.00
2023-04-30T00:43:12.872Z,33.20
2023-04-30T00:45:41.341Z,31.90
2023-04-30T00:48:09.657Z,29.90
2023-04-30T00:50:38.280Z,29.70
2023-04-30T00:53:07.025Z,30.40
2023-04-30T00:55:35.840Z,31.10
2023-04-30T00:58:04.237Z,29.40
2023-04-30T01:00:33.019Z,32.00
2023-04-30T01:03:01.964Z,32.30
2023-04-30T01:05:30.988Z,34.10
2023-04-30T01:07:59.572Z,31.40
2023-04-30T01:10:36.066Z,34.80
2023-04-30T01:13:13.090Z,35.70
2023-04-30T01:16:00.691Z,35.30
2023-04-30T01:18:40.017Z,32.10
2023-04-30T01:21:09.266Z,33.20
2023-04-30T01:24:18.736Z,34.70
2023-04-30T01:27:07.087Z,34.00
2023-04-30T01:30:01.960Z,34.30
2023-04-30T01:32:30.374Z,32.00
2023-04-30T01:34:59.718Z,33.00
2023-04-30T01:38:00.170Z,32.60
2023-04-30T01:40:41.633Z,32.40
2023-04-30T01:43:23.288Z,31.60
2023-04-30T01:46:22.858Z,28.60
2023-04-30T01:48:54.721Z,32.30
2023-04-30T01:51:58.955Z,34.10
2023-04-30T01:54:38.682Z,30.60
2023-04-30T01:57:09.920Z,31.60
2023-04-30T01:59:39.856Z,32.60
2023-04-30T02:02:08.266Z,30.40
2023-04-30T02:04:36.791Z,31.70
2023-04-30T02:07:05.568Z,31.50
2023-04-30T02:09:33.901Z,35.00
2023-04-30T02:12:03.188Z,31.20
2023-04-30T02:14:32.315Z,31.00
2023-04-30T02:17:00.714Z,32.70
2023-04-30T02:19:29.220Z,30.90
2023-04-30T02:21:57.551Z,31.20
2023-04-30T02:24:25.841Z,31.90
2023-04-30T02:26:54.168Z,32.80
2023-04-30T02:29:22.471Z,28.40
2023-04-30T02:31:50.884Z,29.00
2023-04-30T02:34:19.204Z,29.70
2023-04-30T02:36:47.479Z,27.20
2023-04-30T02:39:15.789Z,28.30
2023-04-30T02:41:44.116Z,30.20
2023-04-30T02:44:12.570Z,25.40
2023-04-30T02:46:41.026Z,24.10
2023-04-30T02:49:09.258Z,22.00
2023-04-30T02:51:37.451Z,24.00
2023-04-30T02:54:05.824Z,25.20
2023-04-30T02:56:34.679Z,25.50
2023-04-30T02:59:03.012Z,31.00
2023-04-30T03:01:31.399Z,25.80
2023-04-30T03:03:59.736Z,29.40
2023-04-30T03:06:28.258Z,27.70
2023-04-30T03:08:56.623Z,27.40
2023-04-30T03:11:24.829Z,30.20
2023-04-30T03:13:54.170Z,33.80
2023-04-30T03:16:22.718Z,30.50
2023-04-30T03:18:51.244Z,28.80
2023-04-30T03:21:19.679Z,30.00
2023-04-30T03:23:48.044Z,28.30
2023-04-30T03:26:16.373Z,28.90
2023-04-30T03:28:44.681Z,24.10
2023-04-30T03:31:13.108Z,24.30
2023-04-30T03:33:41.507Z,25.20
2023-04-30T03:36:11.111Z,24.80
2023-04-30T03:38:39.518Z,24.40
2023-04-30T03:41:07.848Z,23.60
2023-04-30T03:43:36.991Z,26.40
2023-04-30T03:46:05.490Z,26.20
2023-04-30T03:48:33.851Z,27.00
2023-04-30T03:51:02.383Z,27.20
2023-04-30T03:53:30.835Z,27.30
2023-04-30T03:55:59.350Z,25.90
2023-04-30T03:58:28.354Z,28.70
2023-04-30T04:00:56.756Z,25.40
2023-04-30T04:03:25.548Z,28.00
2023-04-30T04:05:53.864Z,31.90
2023-04-30T04:08:22.369Z,29.90
2023-04-30T04:10:50.803Z,31.20
2023-04-30T04:13:24.567Z,28.10
2023-04-30T04:15:53.154Z,29.00
2023-04-30T04:18:23.490Z,31.50
2023-04-30T04:20:51.815Z,28.10
2023-04-30T04:23:21.308Z,28.90
2023-04-30T04:25:49.867Z,29.40
2023-04-30T04:28:18.382Z,29.00
2023-04-30T04:30:46.682Z,27.80
2023-04-30T04:33:15.105Z,30.50
2023-04-30T04:35:43.342Z,26.70
2023-04-30T04:38:11.687Z,24.80
2023-04-30T04:40:40.099Z,27.90
2023-04-30T04:43:08.407Z,23.60
2023-04-30T04:45:37.897Z,23.30
2023-04-30T04:48:06.235Z,25.40
2023-04-30T04:50:34.847Z,20.90
2023-04-30T04:53:03.147Z,19.50
2023-04-30T04:55:31.632Z,18.10
2023-04-30T04:57:59.904Z,18.80
2023-04-30T05:00:28.667Z,19.10
2023-04-30T05:02:57.252Z,18.30
2023-04-30T05:05:25.568Z,16.30
2023-04-30T05:07:55.109Z,14.20
2023-04-30T05:10:23.378Z,12.70
2023-04-30T05:12:51.639Z,12.70
2023-04-30T05:15:20.011Z,11.60
2023-04-30T05:17:48.426Z,12.90
2023-04-30T05:20:16.801Z,13.20
2023-04-30T05:22:45.100Z,11.30
2023-04-30T05:25:13.572Z,9.70
2023-04-30T05:27:41.992Z,11.40
2023-04-30T05:30:11.033Z,12.60
2023-04-30T05:32:39.343Z,10.10
2023-04-30T05:35:08.214Z,9.80
2023-04-30T05:37:36.487Z,7.20
2023-04-30T05:40:06.311Z,7.80
2023-04-30T05:42:34.662Z,7.30
2023-04-30T05:45:03.300Z,7.60
2023-04-30T05:47:31.492Z,5.50
2023-04-30T05:49:59.703Z,6.50
2023-04-30T05:52:28.104Z,7.40
2023-04-30T05:54:56.417Z,5.70
2023-04-30T05:57:24.690Z,6.60
2023-04-30T05:59:54.017Z,3.60
2023-04-30T06:02:23.218Z,3.80
2023-04-30T06:04:51.779Z,5.90
2023-04-30T06:07:19.985Z,4.30
2023-04-30T06:09:48.610Z,4.20
2023-04-30T06:12:16.901Z,3.20
2023-04-30T06:14:46.013Z,13.70
2023-04-30T06:17:14.328Z,4.00
2023-04-30T06:19:42.743Z,4.10
2023-04-30T06:22:11.089Z,3.80
2023-04-30T06:24:39.588Z,4.80
2023-04-30T06:27:07.864Z,4.80
2023-04-30T06:29:36.397Z,5.00
2023-04-30T06:32:07.764Z,5.50
2023-04-30T06:34:37.172Z,4.70
2023-04-30T06:37:05.780Z,4.10
2023-04-30T06:39:34.260Z,5.50
2023-04-30T06:42:02.506Z,5.60
2023-04-30T06:44:30.987Z,4.80
2023-04-30T06:46:59.978Z,8.80
2023-04-30T06:49:29.243Z,5.00
2023-04-30T06:51:58.731Z,7.20
2023-04-30T06:54:28.211Z,7.10
2023-04-30T06:56:56.993Z,6.10
2023-04-30T06:59:25.495Z,7.70
2023-04-30T07:01:55.657Z,11.30
2023-04-30T07:04:24.710Z,16.60
2023-04-30T07:06:53.157Z,21.30
2023-04-30T07:09:21.809Z,20.60
2023-04-30T07:11:51.392Z,22.50
2023-04-30T07:14:19.973Z,21.70
2023-04-30T07:16:50.979Z,20.80
2023-04-30T07:19:19.987Z,27.10
2023-04-30T07:21:48.478Z,20.70
2023-04-30T07:24:19.891Z,23.10
2023-04-30T07:26:49.883Z,25.30
2023-04-30T07:29:22.490Z,25.90
2023-04-30T07:31:51.809Z,26.60
2023-04-30T07:34:20.287Z,26.10
2023-04-30T07:36:49.037Z,30.60
2023-04-30T07:39:18.043Z,26.90
2023-04-30T07:41:46.468Z,25.80
2023-04-30T07:44:14.858Z,27.10
2023-04-30T07:46:43.512Z,24.60
2023-04-30T07:49:12.034Z,26.60
2023-04-30T07:51:43.888Z,27.90
2023-04-30T07:54:12.699Z,24.80
2023-04-30T07:56:41.993Z,25.50
2023-04-30T07:59:10.362Z,22.70
2023-04-30T08:01:39.594Z,25.60
2023-04-30T08:04:08.211Z,25.00
2023-04-30T08:06:37.022Z,26.30
2023-04-30T08:09:05.738Z,25.70
2023-04-30T08:11:34.223Z,25.20
2023-04-30T08:14:03.408Z,24.70
2023-04-30T08:16:32.003Z,23.70
2023-04-30T08:19:00.673Z,24.20
2023-04-30T08:21:31.618Z,22.70
2023-04-30T08:24:00.003Z,24.00
2023-04-30T08:26:30.645Z,22.10
2023-04-30T08:28:59.384Z,22.10
2023-04-30T08:31:27.981Z,23.20
2023-04-30T08:33:56.479Z,24.00
2023-04-30T08:36:24.979Z,23.90
2023-04-30T08:38:53.888Z,21.30
2023-04-30T08:41:27.196Z,23.40
2023-04-30T08:43:58.164Z,19.80
2023-04-30T08:46:26.946Z,19.80
2023-04-30T08:48:55.944Z,24.60
2023-04-30T08:51:27.853Z,22.90
2023-04-30T08:53:57.902Z,21.60
2023-04-30T08:56:26.430Z,24.90
2023-04-30T08:58:54.939Z,23.20
2023-04-30T09:01:24.115Z,24.70
2023-04-30T09:03:55.923Z,20.10
2023-04-30T09:06:25.095Z,23.00
2023-04-30T09:08:54.474Z,20.70
2023-04-30T09:11:28.095Z,22.00
2023-04-30T09:14:00.157Z,22.20
2023-04-30T09:16:33.242Z,21.10
2023-04-30T09:19:05.723Z,19.90
2023-04-30T09:21:37.833Z,19.80
2023-04-30T09:24:06.581Z,19.60
2023-04-30T09:26:38.302Z,23.30
2023-04-30T09:29:08.843Z,18.10
2023-04-30T09:31:40.861Z,16.50
2023-04-30T09:34:09.429Z,18.60
2023-04-30T09:36:55.495Z,17.80
2023-04-30T09:39:24.179Z,16.80
2023-04-30T09:43:04.424Z,16.30
2023-04-30T09:45:53.072Z,15.20
2023-04-30T09:48:28.260Z,14.30
2023-04-30T09:50:58.503Z,12.50
2023-04-30T09:53:27.033Z,13.40
2023-04-30T09:55:59.263Z,17.20
2023-04-30T09:58:30.709Z,13.10
2023-04-30T10:01:01.762Z,12.60
2023-04-30T10:03:36.865Z,11.00
2023-04-30T10:08:43.946Z,13.40
2023-04-30T10:11:29.441Z,13.90
2023-04-30T10:14:20.431Z,11.70
2023-04-30T10:17:06.944Z,13.70
2023-04-30T10:19:41.878Z,11.30
2023-04-30T10:24:39.962Z,12.20
2023-04-30T10:27:08.800Z,9.10
2023-04-30T10:29:37.115Z,13.30
2023-04-30T10:32:06.838Z,12.10
2023-04-30T10:34:46.005Z,13.40
2023-04-30T10:37:45.678Z,13.80
2023-04-30T10:40:15.132Z,12.30
2023-04-30T10:42:47.493Z,10.50
2023-04-30T10:45:20.878Z,12.60
2023-04-30T10:47:49.471Z,13.10
2023-04-30T10:50:18.758Z,10.20
2023-04-30T10:52:47.107Z,8.70
2023-04-30T10:55:17.472Z,13.00
2023-04-30T10:57:48.541Z,10.90
2023-04-30T11:00:26.030Z,9.20
2023-04-30T11:03:04.090Z,8.60
2023-04-30T11:05:39.277Z,9.60
2023-04-30T11:08:11.974Z,12.40
2023-04-30T11:11:00.469Z,10.60
2023-04-30T11:13:28.950Z,8.10
2023-04-30T11:16:04.739Z,11.70
2023-04-30T11:21:12.428Z,7.50
2023-04-30T11:23:45.936Z,12.10
2023-04-30T11:26:18.960Z,14.50
2023-04-30T11:28:53.557Z,13.40
2023-04-30T11:31:23.039Z,7.60
2023-04-30T11:33:52.520Z,8.40
2023-04-30T11:36:29.827Z,10.20
2023-04-30T11:39:06.334Z,9.70
2023-04-30T11:41:44.037Z,7.70
2023-04-30T11:44:31.049Z,12.90
2023-04-30T11:47:03.293Z,10.60
2023-04-30T11:49:37.869Z,7.00
2023-04-30T11:52:14.821Z,8.80
2023-04-30T11:54:43.937Z,6.30
2023-04-30T11:57:17.000Z,7.20
2023-04-30T11:59:46.158Z,8.40
2023-04-30T12:02:22.567Z,6.50
2023-04-30T12:04:54.710Z,7.50
2023-04-30T12:07:26.503Z,9.30
2023-04-30T12:10:01.900Z,12.50
2023-04-30T12:12:35.510Z,16.00
2023-04-30T12:15:27.280Z,8.60
2023-04-30T12:18:00.276Z,5.40
2023-04-30T12:20:32.999Z,8.80
2023-04-30T12:23:04.468Z,9.30
2023-04-30T12:25:42.174Z,13.60
2023-04-30T12:28:14.070Z,6.00
2023-04-30T12:30:43.862Z,7.70
2023-04-30T12:33:12.185Z,8.40
2023-04-30T12:35:43.556Z,8.10
2023-04-30T12:38:18.515Z,9.10
2023-04-30T12:40:50.777Z,7.20
2023-04-30T12:43:19.290Z,9.10
2023-04-30T12:45:55.264Z,4.70
2023-04-30T12:48:25.947Z,7.30
2023-04-30T12:51:02.174Z,9.10
2023-04-30T12:53:32.132Z,8.10
2023-04-30T12:56:16.470Z,7.30
2023-04-30T12:58:47.615Z,7.90
2023-04-30T13:01:25.426Z,9.10
2023-04-30T13:03:54.262Z,6.20
2023-04-30T13:06:23.766Z,9.90
2023-04-30T13:08:58.531Z,7.90
2023-04-30T13:11:27.862Z,9.30
2023-04-30T13:13:56.839Z,6.20
2023-04-30T13:16:25.648Z,12.40
2023-04-30T13:18:55.213Z,8.10
2023-04-30T13:21:25.145Z,10.70
2023-04-30T13:23:54.843Z,5.60
2023-04-30T13:26:23.993Z,5.20
2023-04-30T13:28:52.520Z,7.40
2023-04-30T13:31:20.962Z,6.90
2023-04-30T13:33:50.369Z,6.80
2023-04-30T13:36:18.660Z,6.90
2023-04-30T13:38:47.153Z,9.30
2023-04-30T13:41:15.637Z,6.60
2023-04-30T13:43:44.794Z,7.20
2023-04-30T13:46:13.476Z,5.70
2023-04-30T13:48:48.348Z,6.70
2023-04-30T13:51:16.694Z,9.40
2023-04-30T13:53:45.162Z,5.50
2023-04-30T13:56:15.414Z,4.70
2023-04-30T13:58:44.382Z,10.10
2023-04-30T14:01:14.094Z,8.00
2023-04-30T14:03:43.629Z,7.40
2023-04-30T14:06:12.251Z,8.20
2023-04-30T14:08:40.678Z,5.00
2023-04-30T14:11:10.308Z,7.40
2023-04-30T14:13:38.575Z,6.80
2023-04-30T14:16:07.397Z,7.90
2023-04-30T14:18:38.923Z,7.40
2023-04-30T14:21:08.876Z,7.00
2023-04-30T14:23:39.343Z,6.50
2023-04-30T14:26:07.784Z,7.80
2023-04-30T14:28:37.672Z,4.80
2023-04-30T14:31:07.882Z,8.20
2023-04-30T14:33:59.875Z,5.60
2023-04-30T14:36:30.396Z,4.40
2023-04-30T14:38:59.563Z,6.60
2023-04-30T14:41:30.357Z,4.90
2023-04-30T14:44:00.199Z,8.70
2023-04-30T14:46:29.062Z,6.60
2023-04-30T14:48:57.837Z,6.50
2023-04-30T14:51:26.203Z,7.00
2023-04-30T14:54:03.986Z,7.40
2023-04-30T14:56:33.361Z,8.10
2023-04-30T14:59:07.844Z,5.50
2023-04-30T15:01:43.280Z,9.10
2023-04-30T15:04:12.030Z,5.80
2023-04-30T15:06:43.456Z,4.90
2023-04-30T15:09:18.440Z,6.50
2023-04-30T15:11:47.040Z,8.90
2023-04-30T15:14:17.157Z,8.70
2023-04-30T15:16:46.891Z,5.40
2023-04-30T15:19:19.227Z,7.60
2023-04-30T15:21:49.115Z,5.30
2023-04-30T15:27:06.863Z,7.60
2023-04-30T15:29:42.494Z,5.50
2023-04-30T15:32:15.811Z,6.80
2023-04-30T15:34:45.317Z,9.10
2023-04-30T15:37:13.769Z,4.20
2023-04-30T15:39:43.808Z,7.90
2023-04-30T15:42:18.546Z,10.00
2023-04-30T15:44:50.893Z,6.20
2023-04-30T15:47:23.898Z,10.40
2023-04-30T15:49:57.355Z,6.00
2023-04-30T15:52:30.235Z,7.90
2023-04-30T15:55:11.488Z,6.20
2023-04-30T15:57:49.254Z,10.80
2023-04-30T16:00:18.794Z,8.60
2023-04-30T16:02:47.349Z,9.10
2023-04-30T16:05:15.686Z,6.70
2023-04-30T16:07:45.692Z,6.30
2023-04-30T16:10:14.751Z,5.20
2023-04-30T16:12:43.079Z,9.60
2023-04-30T16:15:11.869Z,4.60
2023-04-30T16:17:41.236Z,6.40
2023-04-30T16:20:11.504Z,6.60
2023-04-30T16:22:39.995Z,7.30
2023-04-30T16:25:10.147Z,6.20
2023-04-30T16:27:40.543Z,10.60
2023-04-30T16:30:09.743Z,6.80
2023-04-30T16:32:38.047Z,8.10
2023-04-30T16:35:06.860Z,6.60
2023-04-30T16:37:35.924Z,10.00
2023-04-30T16:40:06.461Z,6.90
2023-04-30T16:42:35.096Z,7.70
2023-04-30T16:45:04.920Z,8.40
2023-04-30T16:47:33.337Z,6.70
2023-04-30T16:50:02.195Z,10.20
2023-04-30T16:52:31.134Z,6.10
2023-04-30T16:54:59.610Z,12.30
2023-04-30T16:57:31.600Z,11.40
2023-04-30T17:00:00.144Z,9.30
2023-04-30T17:02:34.119Z,11.20
2023-04-30T17:05:05.200Z,10.40
2023-04-30T17:07:34.872Z,10.20
2023-04-30T17:10:09.502Z,7.10
2023-04-30T17:12:38.792Z,7.60
2023-04-30T17:15:09.202Z,9.20
2023-04-30T17:17:51.049Z,9.00
2023-04-30T17:20:22.058Z,7.20
2023-04-30T17:22:51.160Z,9.30
2023-04-30T17:25:19.638Z,5.90
2023-04-30T17:27:48.018Z,7.10
2023-04-30T17:30:27.633Z,10.00
2023-04-30T17:32:56.800Z,7.50
2023-04-30T17:35:25.289Z,9.00
2023-04-30T17:37:54.206Z,8.60
2023-04-30T17:40:22.731Z,8.70
2023-04-30T17:42:52.090Z,8.20
2023-04-30T17:45:20.437Z,8.80
2023-04-30T17:47:48.835Z,8.20
2023-04-30T17:50:17.365Z,7.10
2023-04-30T17:52:45.994Z,13.50
2023-04-30T17:55:17.957Z,9.60
2023-04-30T17:57:48.513Z,7.10
2023-04-30T18:00:30.101Z,9.60
2023-04-30T18:03:35.332Z,13.70
2023-04-30T18:06:20.757Z,13.90
2023-04-30T18:09:07.466Z,8.20
2023-04-30T18:11:43.651Z,9.50
2023-04-30T18:14:20.561Z,23.20
2023-04-30T18:17:05.029Z,24.40
2023-04-30T18:19:44.853Z,28.10
2023-04-30T18:22:19.783Z,26.00
2023-04-30T18:25:01.636Z,27.00
2023-04-30T18:27:35.192Z,25.20
2023-04-30T18:30:14.296Z,21.60
2023-04-30T18:32:47.451Z,17.00
2023-04-30T18:35:23.825Z,16.30
2023-04-30T18:37:57.664Z,19.80
2023-04-30T18:40:26.666Z,14.30
2023-04-30T18:43:06.679Z,15.20
2023-04-30T18:45:35.829Z,27.90
2023-04-30T18:48:05.795Z,48.50
2023-04-30T18:50:34.817Z,96.90
2023-04-30T18:53:13.020Z,114.50
2023-04-30T18:55:48.482Z,133.40
2023-04-30T18:58:17.173Z,169.80
2023-04-30T19:00:49.250Z,186.60
2023-04-30T19:03:18.186Z,128.40
2023-04-30T19:06:12.498Z,74.20
2023-04-30T19:08:40.988Z,60.70
2023-04-30T19:11:11.583Z,59.80
2023-04-30T19:13:39.845Z,58.00
2023-04-30T19:16:08.292Z,44.80
2023-04-30T19:18:38.646Z,35.30
2023-04-30T19:21:07.288Z,39.80
2023-04-30T19:23:36.002Z,315.80
2023-04-30T19:26:04.428Z,273.40
2023-04-30T19:29:04.772Z,263.00
2023-04-30T19:31:35.266Z,179.40
2023-04-30T19:34:03.940Z,120.20
2023-04-30T19:36:32.464Z,103.00
2023-04-30T19:39:00.918Z,92.70
2023-04-30T19:41:29.197Z,150.10
2023-04-30T19:43:57.437Z,180.30
2023-04-30T19:46:26.037Z,160.20
2023-04-30T19:48:54.280Z,98.70
2023-04-30T19:51:22.609Z,81.90
2023-04-30T19:53:52.418Z,76.10
2023-04-30T19:56:20.887Z,68.70
2023-04-30T19:58:49.239Z,81.00
2023-04-30T20:01:18.685Z,76.30
2023-04-30T20:03:47.168Z,82.10
2023-04-30T20:06:15.683Z,85.80
2023-04-30T20:08:44.046Z,75.10
2023-04-30T20:11:12.254Z,84.70
2023-04-30T20:13:41.811Z,75.30
2023-04-30T20:16:12.799Z,71.90
2023-04-30T20:18:42.237Z,73.10
2023-04-30T20:21:10.733Z,77.80
2023-04-30T20:23:42.265Z,77.60
2023-04-30T20:26:11.589Z,68.90
2023-04-30T20:28:40.111Z,51.30
2023-04-30T20:31:10.210Z,39.50
2023-04-30T20:33:41.327Z,36.10
2023-04-30T20:36:09.712Z,34.50
2023-04-30T20:38:38.273Z,27.40
2023-04-30T20:41:06.608Z,27.60
2023-04-30T20:43:34.898Z,19.80
2023-04-30T20:46:03.389Z,22.10
2023-04-30T20:48:31.756Z,20.70
2023-04-30T20:50:59.974Z,27.00
2023-04-30T20:53:28.385Z,23.00
2023-04-30T20:56:00.212Z,27.00
2023-04-30T20:58:28.850Z,28.10
2023-04-30T21:00:57.205Z,34.00
2023-04-30T21:03:25.881Z,28.50
2023-04-30T21:05:54.324Z,22.20
2023-04-30T21:08:22.695Z,25.30
2023-04-30T21:10:51.101Z,21.80
2023-04-30T21:13:19.599Z,22.20
2023-04-30T21:15:49.012Z,22.20
2023-04-30T21:18:17.551Z,22.10
2023-04-30T21:20:46.280Z,20.40
2023-04-30T21:23:14.717Z,20.00
2023-04-30T21:25:45.431Z,20.80
2023-04-30T21:28:13.608Z,17.30
2023-04-30T21:30:42.132Z,18.40
2023-04-30T21:33:10.461Z,19.40
2023-04-30T21:35:39.580Z,19.00
2023-04-30T21:38:08.215Z,21.00
2023-04-30T21:40:36.497Z,20.70
2023-04-30T21:43:04.982Z,18.90
2023-04-30T21:45:33.374Z,19.50
2023-04-30T21:48:01.765Z,18.10
2023-04-30T21:50:33.688Z,23.60
2023-04-30T21:53:03.427Z,20.20
2023-04-30T21:55:31.813Z,17.00
2023-04-30T21:58:00.316Z,22.20
2023-04-30T22:00:28.723Z,16.30
2023-04-30T22:02:57.111Z,14.90
2023-04-30T22:05:26.066Z,18.30
2023-04-30T22:07:55.166Z,21.10
2023-04-30T22:10:25.836Z,16.10
2023-04-30T22:12:54.239Z,16.50
2023-04-30T22:15:22.849Z,20.90
2023-04-30T22:17:51.425Z,16.50
2023-04-30T22:20:19.790Z,16.30
2023-04-30T22:22:48.191Z,20.60
2023-04-30T22:25:17.962Z,20.40
2023-04-30T22:27:47.264Z,19.40
2023-04-30T22:30:16.328Z,18.40
2023-04-30T22:32:45.325Z,19.30
2023-04-30T22:35:17.185Z,32.40
2023-04-30T22:37:45.995Z,29.80
2023-04-30T22:40:14.767Z,23.60
2023-04-30T22:42:43.933Z,19.90
2023-04-30T22:45:12.771Z,24.60
2023-04-30T22:47:42.114Z,18.70
2023-04-30T22:50:10.778Z,18.20
2023-04-30T22:52:39.264Z,21.60
2023-04-30T22:55:08.325Z,21.40
2023-04-30T22:57:36.694Z,21.30
2023-04-30T23:00:05.832Z,21.30
2023-04-30T23:02:34.430Z,20.40
2023-04-30T23:05:03.744Z,19.90
2023-04-30T23:07:32.225Z,21.60
2023-04-30T23:10:00.568Z,20.80
2023-04-30T23:12:29.307Z,22.80
2023-04-30T23:14:57.587Z,22.50
2023-04-30T23:17:27.301Z,18.30
2023-04-30T23:19:55.850Z,18.10
2023-04-30T23:22:24.588Z,19.90
2023-04-30T23:24:53.153Z,18.10
2023-04-30T23:27:21.392Z,19.80
2023-04-30T23:29:49.707Z,17.50
2023-04-30T23:32:18.648Z,17.90
2023-04-30T23:34:47.713Z,18.10
2023-04-30T23:37:19.022Z,16.20
2023-04-30T23:39:47.424Z,18.90
2023-04-30T23:42:15.739Z,20.50
2023-04-30T23:44:44.104Z,19.00
2023-04-30T23:47:12.726Z,21.30
2023-04-30T23:49:41.184Z,18.00
2023-04-30T23:52:09.707Z,15.60
2023-04-30T23:54:38.259Z,19.20
2023-04-30T23:57:06.591Z,17.40
2023-04-30T23:59:34.892Z,17.40
